Time;durP1;ratioP1;P1;durP2;ratioP2;P2;SDS_P1;SDS_P2;PMS_P1;PMS_P2;Temp;Humidity;BMP_temperature;BMP_pressure;BME280_temperature;BME280_humidity;BME280_pressure;Samples;Min_cycle;Max_cycle;Signal;HPM_P1;HPM_P2
2021/08/21 00:00:44;;;;;;;7.00;4.20;;;;;;;29.02;36.09;100979.58;112772;1216;60275;-90
2021/08/21 00:03:12;;;;;;;5.70;4.30;;;;;;;29.02;35.98;100976.79;112907;1216;60270;-86
2021/08/21 00:05:51;;;;;;;5.40;3.90;;;;;;;29.03;36.11;100978.22;112810;1219;60184;-89
2021/08/21 00:08:17;;;;;;;5.80;4.00;;;;;;;29.03;36.15;100978.63;112933;1216;64822;-85
2021/08/21 00:11:00;;;;;;;6.50;4.20;;;;;;;29.03;36.00;100982.06;112954;1216;61398;-88
2021/08/21 00:13:46;;;;;;;6.60;4.30;;;;;;;29.02;36.03;100982.47;112820;1218;60292;-87
2021/08/21 00:16:15;;;;;;;5.60;3.90;;;;;;;29.02;35.89;100984.11;113005;1220;60313;-86
2021/08/21 00:19:12;;;;;;;6.10;4.20;;;;;;;29.02;36.03;100982.32;112531;1223;65245;-85
2021/08/21 00:21:41;;;;;;;5.30;4.10;;;;;;;29.02;36.12;100979.81;112474;1221;64899;-87
2021/08/21 00:24:10;;;;;;;5.20;3.90;;;;;;;29.02;36.21;100980.89;112533;1223;60087;-87
2021/08/21 00:27:06;;;;;;;;;;;;;;;29.01;36.18;100981.09;112538;1222;60216;-85
2021/08/21 00:29:42;;;;;;;5.20;4.00;;;;;;;28.99;36.04;100985.73;112693;1224;63601;-86
2021/08/21 00:32:18;;;;;;;6.20;4.10;;;;;;;28.99;36.01;100980.05;112512;1223;75815;-87
2021/08/21 00:34:47;;;;;;;5.40;3.90;;;;;;;28.99;36.09;100980.09;112484;1223;60181;-89
2021/08/21 00:37:27;;;;;;;7.50;4.20;;;;;;;28.99;36.16;100981.74;112501;1224;60193;-88
2021/08/21 00:40:05;;;;;;;5.30;3.90;;;;;;;28.99;36.15;100978.48;112300;1223;63667;-86
2021/08/21 00:42:41;;;;;;;6.00;4.10;;;;;;;28.98;36.23;100976.75;112697;1222;65867;-88
2021/08/21 00:45:19;;;;;;;5.80;3.90;;;;;;;28.98;36.40;100975.30;112679;1223;61196;-85
2021/08/21 00:47:50;;;;;;;5.70;3.90;;;;;;;28.98;36.26;100974.40;112711;1223;60124;-84
2021/08/21 00:50:48;;;;;;;5.20;3.70;;;;;;;28.98;36.20;100978.92;112504;1223;72447;-86
2021/08/21 00:53:17;;;;;;;4.90;3.90;;;;;;;28.97;36.14;100979.16;112650;1223;65117;-87
2021/08/21 00:56:09;;;;;;;7.90;4.00;;;;;;;28.97;36.26;100978.81;112542;1222;60170;-91
2021/08/21 00:58:48;;;;;;;6.20;3.90;;;;;;;28.97;36.20;100980.65;112900;1219;60144;-88
2021/08/21 01:01:24;;;;;;;5.50;4.00;;;;;;;28.97;36.31;100977.60;112933;1219;63563;-86
2021/08/21 01:04:02;;;;;;;5.00;3.80;;;;;;;28.96;36.36;100976.54;112948;1219;65384;-85
2021/08/21 01:06:41;;;;;;;5.20;3.80;;;;;;;28.97;36.30;100976.14;112961;1214;60231;-86
2021/08/21 01:09:09;;;;;;;4.80;3.60;;;;;;;28.97;36.30;100976.00;112986;1211;60157;-85
2021/08/21 01:11:38;;;;;;;5.50;3.80;;;;;;;28.96;36.42;100974.20;112800;1222;63889;-88
2021/08/21 01:14:13;;;;;;;5.90;4.00;;;;;;;28.97;36.40;100970.17;112928;1219;64949;-86
2021/08/21 01:16:59;;;;;;;5.40;3.70;;;;;;;28.96;36.43;100969.70;112937;1216;60156;-85
2021/08/21 01:19:37;;;;;;;5.60;3.80;;;;;;;28.96;36.48;100968.28;112999;1219;60155;-87
2021/08/21 01:22:06;;;;;;;5.80;4.00;;;;;;;28.96;36.60;100963.76;112933;1220;65231;-87
2021/08/21 01:24:45;;;;;;;6.10;4.10;;;;;;;28.96;36.41;100959.07;112936;1220;66025;-86
2021/08/21 01:27:31;;;;;;;6.50;4.20;;;;;;;28.95;36.55;100957.97;112956;1220;60116;-91
2021/08/21 01:29:58;;;;;;;5.60;4.00;;;;;;;28.95;36.44;100961.64;112942;1218;60149;-83
2021/08/21 01:32:28;;;;;;;6.30;3.80;;;;;;;28.95;36.49;100963.08;112973;1216;63849;-85
2021/08/21 01:35:17;;;;;;;5.50;3.70;;;;;;;28.95;36.54;100961.27;112957;1215;65606;-89
2021/08/21 01:37:57;;;;;;;5.60;3.80;;;;;;;28.95;36.48;100963.30;112954;1218;60952;-87
2021/08/21 01:40:42;;;;;;;;;;;;;;;;;;;;;
2021/08/21 01:43:13;;;;;;;5.20;3.70;;;;;;;28.94;36.49;100955.93;112958;1220;64563;-88
2021/08/21 01:45:47;;;;;;;5.40;3.90;;;;;;;28.94;36.63;100954.84;112963;1214;65068;-86
2021/08/21 01:48:25;;;;;;;5.80;4.20;;;;;;;28.94;36.64;100952.70;112899;1219;60119;-86
2021/08/21 01:50:51;;;;;;;5.50;4.00;;;;;;;28.94;36.49;100956.10;112971;1218;60163;-84
2021/08/21 01:53:17;;;;;;;7.00;3.90;;;;;;;28.94;36.55;100956.15;112958;1212;60202;-90
2021/08/21 01:56:05;;;;;;;5.40;4.10;;;;;;;28.94;36.43;100951.79;112908;1219;60318;-91
2021/08/21 01:58:42;;;;;;;6.40;4.40;;;;;;;28.93;36.62;100950.96;112966;1216;60298;-88
2021/08/21 02:01:19;;;;;;;5.80;3.90;;;;;;;28.92;36.61;100951.00;112939;1219;60234;-85
2021/08/21 02:04:01;;;;;;;;;;;;;;;;;;;;;
2021/08/21 02:06:48;;;;;;;5.80;4.20;;;;;;;28.93;36.79;100952.60;112895;1216;65820;-85
2021/08/21 02:09:18;;;;;;;7.00;4.30;;;;;;;28.92;36.77;100951.77;112657;1222;61820;-88
2021/08/21 02:11:52;;;;;;;5.60;4.00;;;;;;;28.93;36.73;100950.83;112899;1216;60263;-89
2021/08/21 02:14:21;;;;;;;6.00;4.20;;;;;;;28.93;36.50;100954.60;112833;1220;72791;-87
2021/08/21 02:16:53;;;;;;;;;;;;;;;28.92;36.68;100957.73;112970;1216;66002;-87
2021/08/21 02:19:28;;;;;;;6.20;4.00;;;;;;;28.90;36.72;100956.14;112971;1218;60143;-84
2021/08/21 02:22:00;;;;;;;6.50;4.20;;;;;;;28.90;36.55;100954.11;112969;1221;60134;-87
2021/08/21 02:24:34;;;;;;;5.90;3.90;;;;;;;28.90;36.88;100955.20;112879;1216;64868;-89
2021/08/21 02:27:12;;;;;;;6.20;4.40;;;;;;;28.91;36.88;100958.08;112955;1216;66112;-85
2021/08/21 02:29:45;;;;;;;6.20;4.10;;;;;;;28.90;36.63;100958.48;112649;1219;60275;-84
2021/08/21 02:32:16;;;;;;;6.10;4.30;;;;;;;28.90;36.86;100958.86;112964;1216;60069;-89
2021/08/21 02:34:57;;;;;;;7.00;4.40;;;;;;;28.90;36.96;100954.51;112955;1214;63763;-88
2021/08/21 02:37:50;;;;;;;7.40;4.20;;;;;;;28.90;36.94;100953.43;112954;1220;66209;-89
2021/08/21 02:40:15;;;;;;;5.80;4.30;;;;;;;28.90;37.03;100954.74;112575;1217;60273;-86
2021/08/21 02:42:41;;;;;;;5.90;4.10;;;;;;;28.90;36.95;100956.55;112269;1222;60118;-86
2021/08/21 02:45:12;;;;;;;5.80;4.20;;;;;;;28.90;36.96;100959.27;112170;1219;60170;-84
2021/08/21 02:47:46;;;;;;;6.90;3.80;;;;;;;28.90;36.98;100958.35;112547;1222;64913;-86
2021/08/21 02:50:15;;;;;;;5.70;4.00;;;;;;;28.89;36.90;100958.17;112528;1224;60196;-86
2021/08/21 02:52:49;;;;;;;6.10;4.30;;;;;;;28.89;36.91;100957.87;112559;1214;60225;-86
2021/08/21 02:55:17;;;;;;;5.60;4.20;;;;;;;28.89;36.93;100959.70;112297;1222;65944;-87
2021/08/21 02:57:43;;;;;;;6.60;3.80;;;;;;;28.89;37.04;100959.33;112524;1219;64872;-88
2021/08/21 03:00:12;;;;;;;6.70;4.60;;;;;;;28.89;36.87;100955.56;112239;1222;60235;-88
2021/08/21 03:02:41;;;;;;;7.00;3.90;;;;;;;28.89;37.04;100956.47;112535;1224;60281;-83
2021/08/21 03:05:07;;;;;;;;;;;;;;;28.88;36.97;100961.56;112254;1222;63702;-88
2021/08/21 03:07:38;;;;;;;5.00;3.80;;;;;;;28.86;37.06;100964.33;112563;1219;60249;-87
2021/08/21 03:10:21;;;;;;;;;;;;;;;;;;;;;
2021/08/21 03:13:21;;;;;;;6.00;4.30;;;;;;;28.86;36.94;100971.05;112549;1219;60289;-84
2021/08/21 03:15:52;;;;;;;6.70;4.30;;;;;;;28.86;37.11;100971.97;112509;1217;63543;-86
2021/08/21 03:18:26;;;;;;;5.10;4.00;;;;;;;28.86;37.06;100978.63;112866;1219;64930;-88
2021/08/21 03:21:02;;;;;;;5.90;4.30;;;;;;;28.86;37.09;100979.91;112969;1218;60205;-90
2021/08/21 03:23:31;;;;;;;6.50;4.30;;;;;;;28.86;37.22;100979.20;112979;1218;60659;-89
2021/08/21 03:26:00;;;;;;;5.80;4.10;;;;;;;28.86;37.08;100981.69;112891;1219;60199;-87
2021/08/21 03:28:37;;;;;;;6.20;4.00;;;;;;;28.87;37.37;100985.48;112763;1216;66370;-85
2021/08/21 03:31:12;;;;;;;6.70;4.20;;;;;;;28.87;37.24;100985.50;112960;1218;60151;-86
2021/08/21 03:33:59;;;;;;;6.80;4.40;;;;;;;28.86;37.02;100985.16;112961;1221;60131;-88
2021/08/21 03:36:37;;;;;;;6.00;4.30;;;;;;;28.86;37.19;100985.52;112935;1220;63772;-90
2021/08/21 03:39:08;;;;;;;7.40;4.20;;;;;;;28.86;37.34;100987.02;112915;1219;64893;-85
2021/08/21 03:41:39;;;;;;;6.00;4.30;;;;;;;28.86;37.52;100989.50;112951;1212;60227;-84
2021/08/21 03:44:08;;;;;;;6.60;4.40;;;;;;;28.86;37.28;100989.66;112984;1218;60099;-84
2021/08/21 03:46:43;;;;;;;6.30;4.20;;;;;;;28.88;37.41;100991.37;112968;1212;60202;-87
2021/08/21 03:49:18;;;;;;;7.90;4.50;;;;;;;28.87;37.14;100993.25;112966;1212;65127;-86
2021/08/21 03:51:47;;;;;;;5.80;4.20;;;;;;;28.87;37.27;100998.81;113055;1214;60180;-84
2021/08/21 03:54:13;;;;;;;6.00;4.40;;;;;;;28.87;37.23;101004.99;113159;1215;60137;-82
2021/08/21 03:56:39;;;;;;;7.40;4.80;;;;;;;28.87;37.34;101006.79;113023;1216;60147;-86
2021/08/21 03:59:07;;;;;;;6.90;4.60;;;;;;;28.88;37.35;101007.48;112966;1212;60744;-86
2021/08/21 04:01:33;;;;;;;5.90;4.20;;;;;;;28.88;37.33;101008.50;112909;1215;60042;-86
2021/08/21 04:04:20;;;;;;;7.60;4.50;;;;;;;28.88;37.27;101010.13;112945;1216;60165;-85
2021/08/21 04:06:54;;;;;;;5.80;4.20;;;;;;;28.87;37.32;101010.02;112946;1211;63846;-85
2021/08/21 04:09:20;;;;;;;6.70;4.30;;;;;;;28.88;37.35;101015.80;112953;1215;65794;-85
2021/08/21 04:11:55;;;;;;;5.60;4.20;;;;;;;28.88;37.35;101017.73;112981;1212;60135;-85
2021/08/21 04:14:24;;;;;;;7.00;4.20;;;;;;;28.88;37.55;101018.11;112979;1211;60882;-86
2021/08/21 04:16:52;;;;;;;5.70;4.10;;;;;;;28.88;37.52;101018.45;112951;1212;63574;-86
2021/08/21 04:19:41;;;;;;;7.20;4.50;;;;;;;28.88;37.26;101020.49;112922;1216;64845;-87
2021/08/21 04:22:10;;;;;;;6.00;4.50;;;;;;;28.87;37.44;101019.47;112893;1219;60128;-86
2021/08/21 04:25:08;;;;;;;6.90;4.10;;;;;;;28.87;37.72;101022.05;112319;1214;60401;-88
2021/08/21 04:27:45;;;;;;;5.40;4.10;;;;;;;28.87;37.56;101020.05;112510;1223;64747;-88
2021/08/21 04:30:14;;;;;;;6.30;3.80;;;;;;;28.87;37.52;101021.51;112538;1223;65785;-84
2021/08/21 04:32:58;;;;;;;5.60;4.10;;;;;;;28.87;37.38;101023.10;112524;1223;60249;-88
2021/08/21 04:35:37;;;;;;;7.70;4.40;;;;;;;28.87;37.31;101021.85;112562;1223;60196;-86
2021/08/21 04:38:14;;;;;;;6.40;4.10;;;;;;;28.87;37.51;101025.48;112270;1225;63786;-84
2021/08/21 04:40:49;;;;;;;7.50;4.40;;;;;;;28.87;37.44;101029.84;112241;1219;66032;-86
2021/08/21 04:43:19;;;;;;;5.80;4.00;;;;;;;28.87;37.46;101030.56;112266;1222;60232;-89
2021/08/21 04:46:10;;;;;;;6.00;4.30;;;;;;;28.87;37.32;101030.56;112529;1223;61338;-86
2021/08/21 04:48:43;;;;;;;6.20;4.50;;;;;;;28.87;37.51;101030.56;112557;1222;64513;-87
2021/08/21 04:51:26;;;;;;;7.00;4.50;;;;;;;28.86;37.37;101030.05;112519;1224;65710;-85
2021/08/21 04:54:00;;;;;;;6.00;4.30;;;;;;;28.87;37.63;101032.58;112509;1223;60243;-82
2021/08/21 04:56:48;;;;;;;;;;;;;;;;;;;;;
2021/08/21 04:59:20;;;;;;;5.50;4.20;;;;;;;28.87;37.59;101039.42;112542;1225;63704;-89
2021/08/21 05:01:54;;;;;;;6.50;4.40;;;;;;;28.87;37.59;101041.21;112594;1218;64769;-84
2021/08/21 05:04:41;;;;;;;6.10;4.20;;;;;;;28.87;37.60;101041.98;112957;1218;60185;-84
2021/08/21 05:07:07;;;;;;;;;;;;;;;28.87;37.52;101041.98;112979;1220;60234;-87
2021/08/21 05:09:51;;;;;;;5.50;4.10;;;;;;;28.85;37.51;101043.96;112942;1219;65022;-86
2021/08/21 05:12:29;;;;;;;6.40;4.60;;;;;;;28.86;37.63;101045.54;112982;1212;65285;-91
2021/08/21 05:15:08;;;;;;;6.50;4.30;;;;;;;28.87;37.87;101050.70;112955;1215;60137;-87
2021/08/21 05:17:56;;;;;;;8.60;4.90;;;;;;;28.86;37.74;101051.08;112962;1218;60202;-87
2021/08/21 05:20:53;;;;;;;5.80;4.40;;;;;;;28.87;37.65;101051.14;112927;1213;63785;-86
2021/08/21 05:23:19;;;;;;;6.10;4.50;;;;;;;28.88;37.53;101049.31;112949;1216;65135;-84
2021/08/21 05:25:52;;;;;;;7.30;4.20;;;;;;;28.88;37.84;101053.77;112972;1219;60195;-88
2021/08/21 05:28:29;;;;;;;6.20;4.10;;;;;;;28.89;37.93;101057.55;112960;1219;60160;-85
2021/08/21 05:31:04;;;;;;;6.30;4.10;;;;;;;28.89;38.02;101062.00;112984;1214;63832;-86
2021/08/21 05:33:50;;;;;;;5.60;4.10;;;;;;;28.90;38.43;101060.48;112968;1218;65865;-89
2021/08/21 05:36:25;;;;;;;5.70;3.90;;;;;;;28.90;38.56;101059.36;112939;1220;60282;-89
2021/08/21 05:38:55;;;;;;;5.40;3.80;;;;;;;28.91;38.49;101061.44;112961;1220;60263;-87
2021/08/21 05:41:24;;;;;;;6.60;4.10;;;;;;;28.92;38.69;101064.98;112978;1218;63728;-84
2021/08/21 05:43:53;;;;;;;6.20;4.10;;;;;;;28.93;38.95;101064.77;112951;1219;66043;-84
2021/08/21 05:46:19;;;;;;;6.50;3.90;;;;;;;28.93;38.61;101060.75;112976;1211;60218;-86
2021/08/21 05:48:56;;;;;;;5.50;3.70;;;;;;;28.94;38.87;101062.48;112958;1214;60235;-84
2021/08/21 05:51:30;;;;;;;5.40;3.70;;;;;;;28.95;38.88;101064.77;112948;1211;63417;-84
2021/08/21 05:53:59;;;;;;;5.80;4.00;;;;;;;28.95;38.72;101064.89;112972;1211;65698;-87
2021/08/21 05:56:32;;;;;;;4.90;3.40;;;;;;;28.96;38.90;101061.20;112949;1219;60167;-88
2021/08/21 05:59:09;;;;;;;7.10;3.90;;;;;;;28.96;39.00;101063.38;112933;1219;60176;-84
2021/08/21 06:01:38;;;;;;;5.40;3.90;;;;;;;28.96;38.99;101062.43;112958;1218;64598;-85
2021/08/21 06:04:10;;;;;;;6.80;3.50;;;;;;;28.97;39.08;101064.89;112981;1218;64864;-87
2021/08/21 06:06:55;;;;;;;5.50;3.70;;;;;;;28.97;38.87;101064.66;112944;1219;60154;-84
2021/08/21 06:09:25;;;;;;;5.20;3.70;;;;;;;28.98;39.13;101065.00;112985;1218;60273;-84
2021/08/21 06:12:00;;;;;;;4.60;3.50;;;;;;;28.98;39.15;101061.16;112967;1211;63709;-90
2021/08/21 06:14:26;;;;;;;5.50;3.90;;;;;;;28.99;39.03;101063.96;112956;1211;64931;-85
2021/08/21 06:16:57;;;;;;;5.50;3.60;;;;;;;28.99;39.11;101065.21;112944;1218;60213;-87
2021/08/21 06:19:46;;;;;;;6.30;3.70;;;;;;;28.99;39.29;101062.64;112979;1219;60077;-85
2021/08/21 06:22:15;;;;;;;5.30;3.90;;;;;;;29.00;39.21;101064.23;112523;1222;63732;-85
2021/08/21 06:24:43;;;;;;;6.50;4.10;;;;;;;29.00;39.05;101064.05;112557;1217;64944;-85
2021/08/21 06:27:13;;;;;;;5.30;3.80;;;;;;;29.00;39.05;101065.06;112540;1222;60365;-84
2021/08/21 06:29:44;;;;;;;6.20;4.40;;;;;;;29.01;39.11;101066.12;112546;1217;60282;-84
2021/08/21 06:32:27;;;;;;;5.40;4.00;;;;;;;29.02;38.89;101062.90;112195;1219;72555;-87
2021/08/21 06:34:52;;;;;;;5.30;3.50;;;;;;;29.02;39.00;101064.00;112566;1222;66030;-81
2021/08/21 06:37:21;;;;;;;5.40;3.50;;;;;;;29.03;38.95;101066.08;112245;1222;60170;-89
2021/08/21 06:39:52;;;;;;;6.20;4.10;;;;;;;29.03;39.15;101065.88;112567;1222;60324;-86
2021/08/21 06:42:21;;;;;;;5.70;4.10;;;;;;;29.04;38.93;101063.48;112561;1217;63772;-87
2021/08/21 06:44:51;;;;;;;6.50;4.30;;;;;;;29.04;39.14;101069.74;112573;1217;64957;-85
2021/08/21 06:47:19;;;;;;;5.50;3.70;;;;;;;29.05;38.93;101069.68;112290;1216;60452;-87
2021/08/21 06:50:09;;;;;;;5.40;3.90;;;;;;;29.05;38.93;101069.88;112562;1216;60141;-88
2021/08/21 06:52:38;;;;;;;5.40;3.60;;;;;;;29.05;39.01;101069.27;112567;1217;63705;-87
2021/08/21 06:55:25;;;;;;;6.00;4.40;;;;;;;29.06;38.91;101066.33;112304;1216;65966;-85
2021/08/21 06:58:12;;;;;;;;;;;;;;;;;;;;;
2021/08/21 07:00:49;;;;;;;;;;;;;;;;;;;;;
2021/08/21 07:03:15;;;;;;;6.30;3.70;;;;;;;29.07;38.98;101069.81;112811;1219;63980;-92
2021/08/21 07:05:41;;;;;;;5.70;3.70;;;;;;;29.08;39.04;101068.49;112974;1213;60279;-87
2021/08/21 07:08:16;;;;;;;6.20;3.40;;;;;;;29.08;39.02;101069.33;112933;1212;60217;-86
2021/08/21 07:10:47;;;;;;;5.20;3.70;;;;;;;29.09;39.02;101068.67;112953;1219;60371;-85
2021/08/21 07:13:20;;;;;;;7.70;4.00;;;;;;;29.10;39.07;101066.45;112953;1211;63730;-88
2021/08/21 07:15:56;;;;;;;5.90;4.30;;;;;;;29.11;39.13;101065.48;112971;1218;60217;-86
2021/08/21 07:18:27;;;;;;;5.30;3.50;;;;;;;29.11;39.15;101063.59;112976;1218;60206;-85
2021/08/21 07:21:02;;;;;;;6.60;3.80;;;;;;;29.12;38.96;101063.52;112940;1219;60157;-85
2021/08/21 07:23:28;;;;;;;5.40;3.90;;;;;;;29.13;39.11;101066.36;112954;1218;73750;-85
2021/08/21 07:25:54;;;;;;;5.30;3.90;;;;;;;29.13;38.96;101066.14;112904;1212;60202;-87
2021/08/21 07:28:40;;;;;;;6.90;4.20;;;;;;;29.13;38.93;101063.84;112935;1218;60202;-84
2021/08/21 07:31:08;;;;;;;;;;;;;;;29.13;38.85;101066.30;112951;1218;60292;-86
2021/08/21 07:33:37;;;;;;;6.20;3.60;;;;;;;29.12;38.93;101068.08;112963;1213;60307;-89
2021/08/21 07:36:03;;;;;;;6.40;3.80;;;;;;;29.13;38.78;101067.61;112967;1212;65689;-82
2021/08/21 07:38:40;;;;;;;6.00;4.10;;;;;;;29.14;38.75;101067.55;112960;1211;60102;-86
2021/08/21 07:41:20;;;;;;;5.80;3.60;;;;;;;29.13;38.88;101069.05;112990;1219;60263;-86
2021/08/21 07:43:46;;;;;;;5.80;3.70;;;;;;;29.14;39.05;101072.40;112992;1219;63505;-85
2021/08/21 07:46:24;;;;;;;4.70;3.70;;;;;;;29.15;39.02;101076.70;112975;1212;60379;-85
2021/08/21 07:48:49;;;;;;;4.80;3.80;;;;;;;29.15;39.01;101078.50;113084;1219;60289;-83
2021/08/21 07:51:15;;;;;;;6.50;3.80;;;;;;;29.15;38.87;101076.29;113107;1214;60154;-85
2021/08/21 07:54:07;;;;;;;6.10;3.90;;;;;;;29.16;38.82;101074.77;112923;1214;60186;-89
2021/08/21 07:56:33;;;;;;;7.30;3.90;;;;;;;29.16;38.78;101075.32;112641;1222;65006;-85
2021/08/21 07:59:09;;;;;;;;;;;;;;;;;;;;;
2021/08/21 08:01:38;;;;;;;5.30;3.60;;;;;;;29.17;38.93;101077.41;112562;1216;60290;-86
2021/08/21 08:04:05;;;;;;;;;;;;;;;29.17;38.74;101079.55;112649;1213;63540;-84
2021/08/21 08:06:56;;;;;;;5.30;3.70;;;;;;;29.16;38.90;101079.12;112579;1223;64900;-87
2021/08/21 08:09:31;;;;;;;5.40;3.90;;;;;;;29.15;38.88;101076.98;112128;1218;60198;-84
2021/08/21 08:11:57;;;;;;;5.60;3.70;;;;;;;29.16;38.94;101079.09;112146;1219;60226;-84
2021/08/21 08:14:34;;;;;;;5.40;3.70;;;;;;;29.16;38.71;101076.55;112231;1222;63894;-84
2021/08/21 08:17:00;;;;;;;4.90;3.50;;;;;;;29.16;38.69;101074.89;112104;1218;66081;-83
2021/08/21 08:19:50;;;;;;;5.70;3.70;;;;;;;29.16;38.72;101074.17;112200;1219;60812;-88
2021/08/21 08:22:22;;;;;;;5.10;3.70;;;;;;;29.16;38.77;101076.52;112120;1219;60169;-85
2021/08/21 08:25:07;;;;;;;4.70;3.40;;;;;;;29.17;38.81;101073.56;112127;1219;64914;-87
2021/08/21 08:27:55;;;;;;;;;;;;;;;;;;;;;
2021/08/21 08:30:30;;;;;;;4.70;3.30;;;;;;;29.17;38.96;101070.82;112142;1225;60821;-88
2021/08/21 08:32:58;;;;;;;5.60;3.60;;;;;;;29.17;38.73;101070.52;112175;1219;61923;-89
2021/08/21 08:35:55;;;;;;;;;;;;;;;;;;;;;
2021/08/21 08:38:31;;;;;;;5.00;3.80;;;;;;;29.17;38.54;101071.90;112568;1222;74282;-87
2021/08/21 08:41:01;;;;;;;5.60;3.50;;;;;;;29.17;38.45;101073.36;112540;1216;60318;-87
2021/08/21 08:43:46;;;;;;;5.10;3.40;;;;;;;29.17;38.21;101070.64;112649;1214;61347;-87
2021/08/21 08:46:12;;;;;;;;;;;;;;;29.17;38.39;101065.17;112429;1216;72772;-86
2021/08/21 08:48:38;;;;;;;5.70;3.80;;;;;;;29.17;38.37;101067.61;112958;1211;60199;-86
2021/08/21 08:51:25;;;;;;;5.20;3.60;;;;;;;29.17;38.49;101065.04;112926;1212;60176;-87
2021/08/21 08:53:51;;;;;;;5.10;3.80;;;;;;;29.18;38.41;101068.79;112955;1219;60195;-87
2021/08/21 08:56:32;;;;;;;6.00;3.70;;;;;;;29.17;38.29;101070.08;112901;1220;63555;-83
2021/08/21 08:58:57;;;;;;;5.90;3.80;;;;;;;29.18;38.34;101065.52;112866;1211;65848;-84
2021/08/21 09:01:44;;;;;;;5.10;3.80;;;;;;;29.18;38.23;101066.02;112980;1211;60207;-87
2021/08/21 09:04:28;;;;;;;5.40;3.60;;;;;;;29.18;38.12;101061.17;112962;1219;60304;-87
2021/08/21 09:07:06;;;;;;;5.30;3.70;;;;;;;29.18;38.04;101065.28;112952;1218;64059;-86
2021/08/21 09:09:35;;;;;;;6.10;3.40;;;;;;;29.19;38.24;101060.70;112958;1214;73407;-89
2021/08/21 09:12:01;;;;;;;4.90;3.40;;;;;;;29.18;38.08;101057.13;112981;1211;60182;-85
2021/08/21 09:14:31;;;;;;;5.60;3.80;;;;;;;29.19;38.03;101049.63;112966;1213;60324;-90
2021/08/21 09:17:28;;;;;;;5.40;3.80;;;;;;;29.19;38.00;101051.23;112946;1214;63540;-85
2021/08/21 09:20:03;;;;;;;5.50;3.20;;;;;;;29.18;38.14;101048.73;112941;1213;65893;-90
2021/08/21 09:22:35;;;;;;;6.70;3.90;;;;;;;29.18;37.89;101048.37;112989;1212;60333;-89
2021/08/21 09:25:08;;;;;;;6.20;4.00;;;;;;;29.19;38.03;101046.53;112925;1219;60133;-89
2021/08/21 09:27:47;;;;;;;;;;;;;;;29.19;38.08;101045.81;112982;1213;63837;-87
2021/08/21 09:30:25;;;;;;;5.50;3.50;;;;;;;29.17;38.03;101046.52;112972;1211;66095;-84
2021/08/21 09:33:01;;;;;;;;;;;;;;;;;;;;;
2021/08/21 09:35:53;;;;;;;4.80;3.40;;;;;;;29.18;38.07;101042.45;112930;1212;60164;-87
2021/08/21 09:38:34;;;;;;;4.40;3.30;;;;;;;29.18;38.04;101038.84;112690;1217;64794;-88
2021/08/21 09:41:09;;;;;;;4.70;3.40;;;;;;;29.18;37.86;101040.98;112702;1222;65866;-88
2021/08/21 09:43:46;;;;;;;5.40;3.70;;;;;;;29.18;37.88;101035.18;112524;1223;60265;-86
2021/08/21 09:46:20;;;;;;;5.10;3.50;;;;;;;29.19;37.84;101034.23;112552;1215;60212;-87
2021/08/21 09:49:16;;;;;;;5.40;3.50;;;;;;;29.19;38.05;101029.67;112497;1222;63623;-88
2021/08/21 09:52:05;;;;;;;;;;;;;;;;;;;;;
2021/08/21 09:54:42;;;;;;;5.10;3.20;;;;;;;29.20;38.04;101028.33;112472;1216;60626;-87
2021/08/21 09:57:09;;;;;;;5.60;3.70;;;;;;;29.20;38.00;101025.97;112529;1223;60170;-85
2021/08/21 09:59:49;;;;;;;5.20;3.60;;;;;;;29.19;38.05;101020.40;112328;1217;64755;-91
2021/08/21 10:02:25;;;;;;;4.20;3.10;;;;;;;29.19;37.93;101022.20;112492;1216;65075;-89
2021/08/21 10:04:51;;;;;;;5.60;3.70;;;;;;;29.20;38.03;101024.88;112515;1217;60313;-84
2021/08/21 10:07:47;;;;;;;;;;;;;;;;;;;;;
2021/08/21 10:10:16;;;;;;;4.30;3.00;;;;;;;29.19;38.12;101016.08;112489;1216;63726;-86
2021/08/21 10:12:46;;;;;;;4.50;3.40;;;;;;;29.18;38.03;101017.61;112304;1223;65044;-84
2021/08/21 10:15:26;;;;;;;4.60;3.30;;;;;;;29.19;38.05;101016.86;112556;1219;60202;-86
2021/08/21 10:18:01;;;;;;;5.00;3.60;;;;;;;29.18;37.83;101015.77;112963;1219;60141;-84
2021/08/21 10:20:37;;;;;;;5.90;3.30;;;;;;;29.19;37.81;101014.31;112959;1214;63500;-87
2021/08/21 10:23:28;;;;;;;4.60;3.40;;;;;;;29.18;37.82;101016.73;112956;1218;65051;-90
2021/08/21 10:26:11;;;;;;;4.90;3.40;;;;;;;29.18;37.85;101014.95;112979;1219;61360;-90
2021/08/21 10:28:43;;;;;;;5.40;3.60;;;;;;;29.18;37.89;101015.12;112965;1219;60168;-86
2021/08/21 10:31:35;;;;;;;5.70;3.70;;;;;;;29.18;37.80;101018.05;112963;1213;63737;-86
2021/08/21 10:34:01;;;;;;;6.10;3.80;;;;;;;29.17;37.98;101014.27;112962;1219;65201;-84
2021/08/21 10:36:57;;;;;;;5.00;3.40;;;;;;;29.17;37.79;101010.10;112856;1212;60295;-92
2021/08/21 10:39:46;;;;;;;5.30;3.60;;;;;;;29.17;37.75;101007.23;112915;1219;60193;-90
2021/08/21 10:42:27;;;;;;;5.00;3.30;;;;;;;29.17;37.91;101004.14;112556;1214;63619;-85
2021/08/21 10:45:03;;;;;;;5.20;3.60;;;;;;;29.17;37.73;101004.11;112706;1222;65964;-89
2021/08/21 10:47:48;;;;;;;5.30;3.60;;;;;;;29.18;37.65;100999.69;112534;1215;60177;-86
2021/08/21 10:50:34;;;;;;;5.10;3.60;;;;;;;29.18;37.63;100996.81;112532;1222;61846;-85
2021/08/21 10:53:21;;;;;;;4.80;3.50;;;;;;;29.17;37.70;100996.34;112039;1226;63890;-85
2021/08/21 10:55:50;;;;;;;5.30;3.50;;;;;;;29.17;37.73;100996.84;112040;1226;64964;-84
2021/08/21 10:58:17;;;;;;;6.30;3.60;;;;;;;29.17;37.49;100995.58;112072;1218;60138;-83
2021/08/21 11:01:20;;;;;;;4.50;3.20;;;;;;;29.17;37.59;100997.41;112116;1226;60445;-84
2021/08/21 11:03:46;;;;;;;5.70;3.80;;;;;;;29.17;37.45;100995.41;112071;1218;64686;-89
2021/08/21 11:06:13;;;;;;;7.90;3.30;;;;;;;29.17;37.45;100992.86;111975;1219;59755;-87
2021/08/21 11:09:03;;;;;;;5.40;3.50;;;;;;;29.17;37.38;100993.73;112057;1219;60136;-86
2021/08/21 11:11:45;;;;;;;5.00;3.50;;;;;;;29.17;37.35;100992.30;111761;1222;60200;-87
2021/08/21 11:14:35;;;;;;;4.70;3.20;;;;;;;29.17;37.36;100994.86;111629;1228;64216;-87
2021/08/21 11:17:05;;;;;;;5.60;3.50;;;;;;;29.17;37.63;100990.72;111393;1231;64140;-84
2021/08/21 11:19:32;;;;;;;4.50;3.30;;;;;;;29.17;37.47;100991.98;111560;1222;60163;-85
2021/08/21 11:22:21;;;;;;;5.30;3.90;;;;;;;29.17;37.39;100990.69;111768;1228;60263;-84
2021/08/21 11:24:53;;;;;;;5.00;3.40;;;;;;;29.17;37.33;100988.02;111799;1225;63808;-84
2021/08/21 11:27:42;;;;;;;5.60;4.00;;;;;;;29.17;37.31;100986.55;111839;1220;75045;-88
2021/08/21 11:30:17;;;;;;;6.70;3.70;;;;;;;29.17;37.45;100982.60;111796;1225;60177;-86
2021/08/21 11:32:48;;;;;;;4.50;3.40;;;;;;;29.16;37.39;100983.73;112059;1225;60194;-87
2021/08/21 11:35:31;;;;;;;6.10;3.70;;;;;;;29.16;37.46;100985.55;112055;1225;64750;-90
2021/08/21 11:38:10;;;;;;;4.40;3.50;;;;;;;29.16;37.30;100981.78;112067;1219;65117;-88
2021/08/21 11:40:43;;;;;;;5.30;3.60;;;;;;;29.16;37.44;100979.40;112033;1225;59004;-85
2021/08/21 11:43:28;;;;;;;4.50;3.30;;;;;;;29.16;37.20;100980.28;112087;1219;60351;-84
2021/08/21 11:45:57;;;;;;;5.10;3.50;;;;;;;29.16;37.19;100978.49;112053;1219;73822;-85
2021/08/21 11:48:28;;;;;;;;;;;;;;;29.16;37.23;100980.48;112256;1213;64970;-84
2021/08/21 11:50:55;;;;;;;5.20;3.50;;;;;;;29.15;37.11;100979.02;112787;1221;60183;-83
2021/08/21 11:53:29;;;;;;;5.20;3.50;;;;;;;29.15;37.28;100979.16;112803;1220;60176;-88
2021/08/21 11:55:59;;;;;;;5.30;3.30;;;;;;;29.15;37.30;100975.14;112787;1214;64899;-87
2021/08/21 11:58:47;;;;;;;4.50;3.40;;;;;;;29.15;37.12;100971.70;112719;1221;64898;-90
2021/08/21 12:01:18;;;;;;;4.40;3.10;;;;;;;29.15;36.97;100972.05;112913;1211;60193;-83
2021/08/21 12:06:36;;;;;;;5.10;3.30;;;;;;;29.16;37.13;100965.47;112884;1212;63753;-86
2021/08/21 12:09:10;;;;;;;5.90;3.50;;;;;;;29.16;37.03;100961.50;112972;1211;74791;-85
2021/08/21 12:11:42;;;;;;;5.60;3.20;;;;;;;29.16;37.17;100961.87;112979;1219;60987;-90
2021/08/21 12:14:16;;;;;;;5.00;3.40;;;;;;;29.16;36.92;100959.31;112889;1212;60390;-84
2021/08/21 12:16:47;;;;;;;6.00;3.50;;;;;;;29.16;36.99;100954.59;112889;1219;63570;-84